sensor_id;sensor_type;location;lat;lon;timestamp;pressure;altitude;pressure_sealevel;temperature;humidity
70229;BME280;57617;51.988;5.854;2022-08-23T00:01:32;100932.56;;;23.46;49.72
70229;BME280;57617;51.988;5.854;2022-08-23T00:04:04;100925.06;;;23.46;49.71
70229;BME280;57617;51.988;5.854;2022-08-23T00:06:30;100924.25;;;23.46;49.42
70229;BME280;57617;51.988;5.854;2022-08-23T00:08:56;100915.13;;;23.45;49.12
70229;BME280;57617;51.988;5.854;2022-08-23T00:14:01;100910.38;;;23.46;49.42
70229;BME280;57617;51.988;5.854;2022-08-23T00:16:26;100914.31;;;23.45;49.20
70229;BME280;57617;51.988;5.854;2022-08-23T00:18:52;100890.78;;;23.34;49.23
70229;BME280;57617;51.988;5.854;2022-08-23T00:21:17;100906.13;;;23.40;49.43
70229;BME280;57617;51.988;5.854;2022-08-23T00:23:43;100910.69;;;23.36;49.34
70229;BME280;57617;51.988;5.854;2022-08-23T00:26:08;100918.53;;;23.34;49.21
70229;BME280;57617;51.988;5.854;2022-08-23T00:28:34;100907.25;;;23.30;49.55
70229;BME280;57617;51.988;5.854;2022-08-23T00:30:59;100911.97;;;23.30;49.71
70229;BME280;57617;51.988;5.854;2022-08-23T00:33:25;100913.28;;;23.24;49.84
70229;BME280;57617;51.988;5.854;2022-08-23T00:35:51;100910.19;;;23.25;49.79
70229;BME280;57617;51.988;5.854;2022-08-23T00:38:16;100910.50;;;23.24;49.73
70229;BME280;57617;51.988;5.854;2022-08-23T00:40:43;100910.50;;;23.24;49.87
70229;BME280;57617;51.988;5.854;2022-08-23T00:43:10;100910.81;;;23.22;49.62
70229;BME280;57617;51.988;5.854;2022-08-23T00:46:12;100916.03;;;23.24;49.45
70229;BME280;57617;51.988;5.854;2022-08-23T00:49:00;100910.50;;;23.24;49.14
70229;BME280;57617;51.988;5.854;2022-08-23T00:51:35;100905.59;;;23.21;49.85
70229;BME280;57617;51.988;5.854;2022-08-23T00:54:02;100911.66;;;23.23;49.60
70229;BME280;57617;51.988;5.854;2022-08-23T00:56:31;100904.78;;;23.20;50.04
70229;BME280;57617;51.988;5.854;2022-08-23T00:58:57;100910.66;;;23.19;49.69
70229;BME280;57617;51.988;5.854;2022-08-23T01:01:23;100913.44;;;23.19;49.82
70229;BME280;57617;51.988;5.854;2022-08-23T01:03:52;100905.69;;;23.16;50.15
70229;BME280;57617;51.988;5.854;2022-08-23T01:06:23;100915.66;;;23.17;50.18
70229;BME280;57617;51.988;5.854;2022-08-23T01:08:54;100906.84;;;23.15;49.99
70229;BME280;57617;51.988;5.854;2022-08-23T01:11:30;100907.16;;;23.13;50.03
70229;BME280;57617;51.988;5.854;2022-08-23T01:14:02;100912.41;;;23.15;49.91
70229;BME280;57617;51.988;5.854;2022-08-23T01:16:33;100907.16;;;23.13;50.08
70229;BME280;57617;51.988;5.854;2022-08-23T01:19:02;100909.94;;;23.13;50.13
70229;BME280;57617;51.988;5.854;2022-08-23T01:21:39;100919.09;;;23.14;50.54
70229;BME280;57617;51.988;5.854;2022-08-23T01:24:06;100919.22;;;23.09;50.50
70229;BME280;57617;51.988;5.854;2022-08-23T01:26:32;100909.75;;;23.01;50.19
70229;BME280;57617;51.988;5.854;2022-08-23T01:29:00;100911.06;;;23.04;50.08
70229;BME280;57617;51.988;5.854;2022-08-23T01:31:26;100915.28;;;23.01;50.26
70229;BME280;57617;51.988;5.854;2022-08-23T01:34:03;100919.50;;;22.99;50.56
70229;BME280;57617;51.988;5.854;2022-08-23T01:36:29;100914.59;;;22.96;50.07
70229;BME280;57617;51.988;5.854;2022-08-23T01:38:55;100911.81;;;22.96;50.57
70229;BME280;57617;51.988;5.854;2022-08-23T01:41:21;100913.63;;;22.92;50.50
70229;BME280;57617;51.988;5.854;2022-08-23T01:43:47;100911.47;;;22.89;50.81
70229;BME280;57617;51.988;5.854;2022-08-23T01:46:18;100914.88;;;22.86;50.92
70229;BME280;57617;51.988;5.854;2022-08-23T01:48:45;100914.53;;;22.79;51.19
70229;BME280;57617;51.988;5.854;2022-08-23T01:51:13;100914.38;;;22.75;51.00
70229;BME280;57617;51.988;5.854;2022-08-23T01:53:38;100915.81;;;22.73;51.36
70229;BME280;57617;51.988;5.854;2022-08-23T01:56:05;100915.63;;;22.69;51.44
70229;BME280;57617;51.988;5.854;2022-08-23T01:58:31;100915.44;;;22.66;51.34
70229;BME280;57617;51.988;5.854;2022-08-23T02:00:57;100914.94;;;22.64;51.22
70229;BME280;57617;51.988;5.854;2022-08-23T02:03:23;100905.16;;;22.58;50.98
70229;BME280;57617;51.988;5.854;2022-08-23T02:05:49;100912.50;;;22.62;51.24
70229;BME280;57617;51.988;5.854;2022-08-23T02:08:14;100913.31;;;22.63;50.90
70229;BME280;57617;51.988;5.854;2022-08-23T02:10:58;100909.09;;;22.65;50.80
70229;BME280;57617;51.988;5.854;2022-08-23T02:13:23;100904.69;;;22.64;50.72
70229;BME280;57617;51.988;5.854;2022-08-23T02:15:49;100913.34;;;22.71;50.62
70229;BME280;57617;51.988;5.854;2022-08-23T02:18:16;100910.28;;;22.73;50.49
70229;BME280;57617;51.988;5.854;2022-08-23T02:20:47;100912.41;;;22.76;50.48
70229;BME280;57617;51.988;5.854;2022-08-23T02:23:14;100907.84;;;22.80;50.27
70229;BME280;57617;51.988;5.854;2022-08-23T02:25:39;100911.94;;;22.82;50.06
70229;BME280;57617;51.988;5.854;2022-08-23T02:28:05;100904.94;;;22.85;50.04
70229;BME280;57617;51.988;5.854;2022-08-23T02:30:31;100912.09;;;22.86;50.02
70229;BME280;57617;51.988;5.854;2022-08-23T02:32:56;100909.84;;;22.88;50.17
70229;BME280;57617;51.988;5.854;2022-08-23T02:35:22;100906.78;;;22.89;50.25
70229;BME280;57617;51.988;5.854;2022-08-23T02:37:48;100914.25;;;22.89;50.17
70229;BME280;57617;51.988;5.854;2022-08-23T02:40:14;100907.56;;;22.90;49.94
70229;BME280;57617;51.988;5.854;2022-08-23T02:42:39;100914.75;;;22.91;50.44
70229;BME280;57617;51.988;5.854;2022-08-23T02:45:06;100911.97;;;22.91;50.38
70229;BME280;57617;51.988;5.854;2022-08-23T02:47:33;100915.25;;;22.93;50.13
70229;BME280;57617;51.988;5.854;2022-08-23T02:49:59;100919.97;;;22.92;50.43
70229;BME280;57617;51.988;5.854;2022-08-23T02:52:24;100917.50;;;22.91;50.58
70229;BME280;57617;51.988;5.854;2022-08-23T02:54:49;100918.66;;;22.90;50.11
70229;BME280;57617;51.988;5.854;2022-08-23T02:57:15;100918.97;;;22.88;50.47
70229;BME280;57617;51.988;5.854;2022-08-23T02:59:40;100921.44;;;22.90;50.43
70229;BME280;57617;51.988;5.854;2022-08-23T03:02:05;100897.59;;;22.80;50.52
70229;BME280;57617;51.988;5.854;2022-08-23T03:04:30;100918.16;;;22.88;50.40
70229;BME280;57617;51.988;5.854;2022-08-23T03:06:56;100919.31;;;22.87;50.09
70229;BME280;57617;51.988;5.854;2022-08-23T03:09:21;100927.63;;;22.87;50.42
70229;BME280;57617;51.988;5.854;2022-08-23T03:11:47;100912.09;;;22.86;50.43
70229;BME280;57617;51.988;5.854;2022-08-23T03:14:14;100917.66;;;22.86;50.48
70229;BME280;57617;51.988;5.854;2022-08-23T03:16:40;100921.56;;;22.85;50.54
70229;BME280;57617;51.988;5.854;2022-08-23T03:19:06;100918.78;;;22.85;50.78
70229;BME280;57617;51.988;5.854;2022-08-23T03:21:31;100925.78;;;22.82;50.73
70229;BME280;57617;51.988;5.854;2022-08-23T03:23:57;100928.38;;;22.79;50.63
70229;BME280;57617;51.988;5.854;2022-08-23T03:26:22;100920.22;;;22.74;50.89
70229;BME280;57617;51.988;5.854;2022-08-23T03:28:47;100921.50;;;22.68;51.40
70229;BME280;57617;51.988;5.854;2022-08-23T03:31:13;100925.03;;;22.60;51.60
70229;BME280;57617;51.988;5.854;2022-08-23T03:33:40;100921.41;;;22.51;51.95
70229;BME280;57617;51.988;5.854;2022-08-23T03:36:07;100919.56;;;22.46;52.30
70229;BME280;57617;51.988;5.854;2022-08-23T03:38:33;100922.75;;;22.40;52.33
70229;BME280;57617;51.988;5.854;2022-08-23T03:40:59;100915.72;;;22.34;52.32
70229;BME280;57617;51.988;5.854;2022-08-23T03:43:25;100924.97;;;22.29;52.69
70229;BME280;57617;51.988;5.854;2022-08-23T03:45:50;100923.66;;;22.27;52.72
70229;BME280;57617;51.988;5.854;2022-08-23T03:48:16;100928.19;;;22.23;52.69
70229;BME280;57617;51.988;5.854;2022-08-23T03:50:41;100924.41;;;22.19;52.76
70229;BME280;57617;51.988;5.854;2022-08-23T03:53:06;100893.34;;;22.00;52.62
70229;BME280;57617;51.988;5.854;2022-08-23T03:55:32;100927.81;;;22.16;52.88
70229;BME280;57617;51.988;5.854;2022-08-23T03:57:57;100929.06;;;22.10;53.13
70229;BME280;57617;51.988;5.854;2022-08-23T04:00:22;100933.91;;;22.04;53.13
70229;BME280;57617;51.988;5.854;2022-08-23T04:02:48;100937.28;;;22.01;53.20
70229;BME280;57617;51.988;5.854;2022-08-23T04:05:13;100939.25;;;22.01;53.39
70229;BME280;57617;51.988;5.854;2022-08-23T04:07:38;100944.78;;;22.01;53.36
70229;BME280;57617;51.988;5.854;2022-08-23T04:10:07;100952.78;;;22.02;53.38
70229;BME280;57617;51.988;5.854;2022-08-23T04:12:32;100952.44;;;22.04;53.19
70229;BME280;57617;51.988;5.854;2022-08-23T04:14:58;100952.13;;;22.05;52.88
70229;BME280;57617;51.988;5.854;2022-08-23T04:17:24;100956.22;;;22.08;52.91
70229;BME280;57617;51.988;5.854;2022-08-23T04:19:49;100952.00;;;22.10;52.89
70229;BME280;57617;51.988;5.854;2022-08-23T04:22:16;100954.47;;;22.12;52.86
70229;BME280;57617;51.988;5.854;2022-08-23T04:24:43;100951.69;;;22.12;52.95
70229;BME280;57617;51.988;5.854;2022-08-23T04:27:09;100954.97;;;22.14;52.73
70229;BME280;57617;51.988;5.854;2022-08-23T04:29:35;100954.97;;;22.14;52.94
70229;BME280;57617;51.988;5.854;2022-08-23T04:32:03;100959.38;;;22.15;52.79
70229;BME280;57617;51.988;5.854;2022-08-23T04:34:29;100959.69;;;22.13;52.84
70229;BME280;57617;51.988;5.854;2022-08-23T04:36:54;100959.06;;;22.16;53.03
70229;BME280;57617;51.988;5.854;2022-08-23T04:39:20;100966.25;;;22.17;53.07
70229;BME280;57617;51.988;5.854;2022-08-23T04:41:45;100968.69;;;22.19;53.09
70229;BME280;57617;51.988;5.854;2022-08-23T04:44:29;100976.97;;;22.19;53.23
70229;BME280;57617;51.988;5.854;2022-08-23T04:46:54;100978.13;;;22.18;53.37
70229;BME280;57617;51.988;5.854;2022-08-23T04:49:19;100984.28;;;22.15;53.09
70229;BME280;57617;51.988;5.854;2022-08-23T04:51:46;100990.63;;;22.15;53.47
70229;BME280;57617;51.988;5.854;2022-08-23T04:54:12;100997.50;;;22.18;53.52
70229;BME280;57617;51.988;5.854;2022-08-23T04:56:37;100995.84;;;22.17;53.68
70229;BME280;57617;51.988;5.854;2022-08-23T04:59:04;100996.16;;;22.15;53.88
70229;BME280;57617;51.988;5.854;2022-08-23T05:01:31;100996.81;;;22.12;54.23
70229;BME280;57617;51.988;5.854;2022-08-23T05:03:56;101002.00;;;22.14;53.95
70229;BME280;57617;51.988;5.854;2022-08-23T05:06:22;100997.59;;;22.13;54.25
70229;BME280;57617;51.988;5.854;2022-08-23T05:08:47;100995.97;;;22.12;54.34
70229;BME280;57617;51.988;5.854;2022-08-23T05:11:13;101003.16;;;22.13;54.36
70229;BME280;57617;51.988;5.854;2022-08-23T05:13:38;101003.16;;;22.13;54.54
70229;BME280;57617;51.988;5.854;2022-08-23T05:16:05;101003.16;;;22.13;54.82
70229;BME280;57617;51.988;5.854;2022-08-23T05:18:31;101004.47;;;22.15;54.90
70229;BME280;57617;51.988;5.854;2022-08-23T05:20:57;100997.00;;;22.16;54.92
70229;BME280;57617;51.988;5.854;2022-08-23T05:23:23;101005.31;;;22.16;54.98
70229;BME280;57617;51.988;5.854;2022-08-23T05:25:48;101003.66;;;22.15;55.15
70229;BME280;57617;51.988;5.854;2022-08-23T05:28:15;101004.78;;;22.14;55.35
70229;BME280;57617;51.988;5.854;2022-08-23T05:30:41;101002.53;;;22.16;55.49
70229;BME280;57617;51.988;5.854;2022-08-23T05:33:06;101001.69;;;22.15;55.30
70229;BME280;57617;51.988;5.854;2022-08-23T05:35:32;101011.50;;;22.21;55.49
70229;BME280;57617;51.988;5.854;2022-08-23T05:37:57;101016.44;;;22.24;55.27
70229;BME280;57617;51.988;5.854;2022-08-23T05:40:25;101009.94;;;22.29;55.43
70229;BME280;57617;51.988;5.854;2022-08-23T05:42:50;101015.06;;;22.35;55.43
70229;BME280;57617;51.988;5.854;2022-08-23T05:45:15;101010.84;;;22.38;55.43
70229;BME280;57617;51.988;5.854;2022-08-23T05:47:41;101019.34;;;22.41;55.59
70229;BME280;57617;51.988;5.854;2022-08-23T05:50:06;101009.00;;;22.47;55.52
70229;BME280;57617;51.988;5.854;2022-08-23T05:52:32;101019.94;;;22.52;55.29
70229;BME280;57617;51.988;5.854;2022-08-23T05:54:57;101007.13;;;22.56;55.28
70229;BME280;57617;51.988;5.854;2022-08-23T05:57:23;101009.09;;;22.64;55.16
70229;BME280;57617;51.988;5.854;2022-08-23T05:59:48;101008.84;;;22.74;55.10
70229;BME280;57617;51.988;5.854;2022-08-23T06:02:13;101012.63;;;22.78;55.16
70229;BME280;57617;51.988;5.854;2022-08-23T06:04:39;101013.28;;;22.83;54.88
70229;BME280;57617;51.988;5.854;2022-08-23T06:07:04;101017.06;;;22.87;54.68
70229;BME280;57617;51.988;5.854;2022-08-23T06:09:30;101021.69;;;22.92;54.56
70229;BME280;57617;51.988;5.854;2022-08-23T06:11:55;101024.63;;;22.95;54.52
70229;BME280;57617;51.988;5.854;2022-08-23T06:14:22;101029.72;;;23.02;54.31
70229;BME280;57617;51.988;5.854;2022-08-23T06:16:49;101027.94;;;23.06;54.52
70229;BME280;57617;51.988;5.854;2022-08-23T06:19:14;101037.25;;;23.10;54.00
70229;BME280;57617;51.988;5.854;2022-08-23T06:21:40;101036.28;;;23.14;54.06
70229;BME280;57617;51.988;5.854;2022-08-23T06:24:05;101039.06;;;23.14;54.04
70229;BME280;57617;51.988;5.854;2022-08-23T06:26:36;101035.38;;;23.19;53.90
70229;BME280;57617;51.988;5.854;2022-08-23T06:29:05;101030.50;;;23.24;53.75
70229;BME280;57617;51.988;5.854;2022-08-23T06:31:31;101034.28;;;23.28;53.94
70229;BME280;57617;51.988;5.854;2022-08-23T06:34:13;101028.59;;;23.33;53.81
70229;BME280;57617;51.988;5.854;2022-08-23T06:36:39;101016.66;;;23.24;53.88
70229;BME280;57617;51.988;5.854;2022-08-23T06:39:06;101040.38;;;23.39;53.52
70229;BME280;57617;51.988;5.854;2022-08-23T06:41:32;101030.28;;;23.43;54.08
70229;BME280;57617;51.988;5.854;2022-08-23T06:43:58;101026.69;;;23.42;53.47
70229;BME280;57617;51.988;5.854;2022-08-23T06:46:25;101032.41;;;23.46;53.71
70229;BME280;57617;51.988;5.854;2022-08-23T06:48:52;101029.63;;;23.46;53.34
70229;BME280;57617;51.988;5.854;2022-08-23T06:51:27;101039.13;;;23.53;53.42
70229;BME280;57617;51.988;5.854;2022-08-23T06:53:58;101033.75;;;23.57;52.92
70229;BME280;57617;51.988;5.854;2022-08-23T06:56:26;101026.25;;;23.57;52.85
70229;BME280;57617;51.988;5.854;2022-08-23T06:58:52;101027.41;;;23.65;53.20
70229;BME280;57617;51.988;5.854;2022-08-23T07:01:27;101031.97;;;23.69;52.90
70229;BME280;57617;51.988;5.854;2022-08-23T07:03:54;101033.47;;;23.75;52.91
70229;BME280;57617;51.988;5.854;2022-08-23T07:06:25;101025.00;;;23.80;53.16
70229;BME280;57617;51.988;5.854;2022-08-23T07:08:50;101023.09;;;23.89;52.66
70229;BME280;57617;51.988;5.854;2022-08-23T07:11:16;101032.56;;;23.97;52.67
70229;BME280;57617;51.988;5.854;2022-08-23T07:13:42;101031.09;;;23.99;52.46
70229;BME280;57617;51.988;5.854;2022-08-23T07:16:07;101023.59;;;24.00;52.51
70229;BME280;57617;51.988;5.854;2022-08-23T07:18:33;101036.19;;;24.06;52.16
70229;BME280;57617;51.988;5.854;2022-08-23T07:21:00;101040.59;;;24.07;52.32
70229;BME280;57617;51.988;5.854;2022-08-23T07:23:27;101044.03;;;24.12;52.05
70229;BME280;57617;51.988;5.854;2022-08-23T07:25:57;101049.75;;;24.16;52.30
70229;BME280;57617;51.988;5.854;2022-08-23T07:28:22;101050.22;;;24.18;52.24
70229;BME280;57617;51.988;5.854;2022-08-23T07:30:49;101044.03;;;24.21;51.90
70229;BME280;57617;51.988;5.854;2022-08-23T07:33:14;101044.19;;;24.24;51.73
70229;BME280;57617;51.988;5.854;2022-08-23T07:35:48;101044.88;;;24.30;51.70
70229;BME280;57617;51.988;5.854;2022-08-23T07:38:14;101044.69;;;24.26;51.73
70229;BME280;57617;51.988;5.854;2022-08-23T07:40:40;101042.25;;;24.33;51.84
70229;BME280;57617;51.988;5.854;2022-08-23T07:43:05;101048.75;;;24.37;52.08
70229;BME280;57617;51.988;5.854;2022-08-23T07:45:30;101058.09;;;24.41;51.92
70229;BME280;57617;51.988;5.854;2022-08-23T07:47:56;101059.91;;;24.46;51.38
70229;BME280;57617;51.988;5.854;2022-08-23T07:50:21;101059.22;;;24.49;51.64
70229;BME280;57617;51.988;5.854;2022-08-23T07:52:46;101064.94;;;24.52;51.24
70229;BME280;57617;51.988;5.854;2022-08-23T07:55:11;101063.16;;;24.56;51.03
70229;BME280;57617;51.988;5.854;2022-08-23T07:57:37;101071.03;;;24.63;50.85
70229;BME280;57617;51.988;5.854;2022-08-23T08:00:03;101072.66;;;24.64;50.85
70229;BME280;57617;51.988;5.854;2022-08-23T08:02:29;101075.28;;;24.69;51.07
70229;BME280;57617;51.988;5.854;2022-08-23T08:04:54;101075.94;;;24.74;51.24
70229;BME280;57617;51.988;5.854;2022-08-23T08:07:19;101081.31;;;24.79;50.71
70229;BME280;57617;51.988;5.854;2022-08-23T08:09:45;101078.38;;;24.84;50.96
70229;BME280;57617;51.988;5.854;2022-08-23T08:12:11;101067.72;;;24.86;50.45
70229;BME280;57617;51.988;5.854;2022-08-23T08:14:36;101076.06;;;24.95;49.95
70229;BME280;57617;51.988;5.854;2022-08-23T08:17:02;101073.44;;;24.98;49.79
70229;BME280;57617;51.988;5.854;2022-08-23T08:19:28;101077.34;;;25.06;49.78
70229;BME280;57617;51.988;5.854;2022-08-23T08:21:53;101078.31;;;25.10;49.70
70229;BME280;57617;51.988;5.854;2022-08-23T08:24:18;101072.09;;;25.13;48.81
70229;BME280;57617;51.988;5.854;2022-08-23T08:26:44;101078.66;;;25.17;48.57
70229;BME280;57617;51.988;5.854;2022-08-23T08:29:11;101077.63;;;25.21;48.24
70229;BME280;57617;51.988;5.854;2022-08-23T08:31:38;101074.72;;;25.26;48.16
70229;BME280;57617;51.988;5.854;2022-08-23T08:34:05;101074.22;;;25.33;48.43
70229;BME280;57617;51.988;5.854;2022-08-23T08:39:05;101077.94;;;25.45;48.19
70229;BME280;57617;51.988;5.854;2022-08-23T08:42:18;101089.16;;;25.57;48.02
70229;BME280;57617;51.988;5.854;2022-08-23T08:47:16;101081.94;;;25.65;47.67
70229;BME280;57617;51.988;5.854;2022-08-23T08:49:51;101085.13;;;25.75;47.87
70229;BME280;57617;51.988;5.854;2022-08-23T08:52:25;101075.28;;;25.78;47.71
70229;BME280;57617;51.988;5.854;2022-08-23T08:55:00;101082.47;;;25.87;47.81
70229;BME280;57617;51.988;5.854;2022-08-23T08:57:31;101089.50;;;25.93;47.38
70229;BME280;57617;51.988;5.854;2022-08-23T09:00:26;101075.25;;;25.95;47.33
70229;BME280;57617;51.988;5.854;2022-08-23T09:02:53;101081.44;;;26.00;46.85
70229;BME280;57617;51.988;5.854;2022-08-23T09:05:25;101091.84;;;26.12;46.90
70229;BME280;57617;51.988;5.854;2022-08-23T09:13:38;101089.63;;;26.46;45.68
70229;BME280;57617;51.988;5.854;2022-08-23T09:18:39;101101.41;;;26.72;45.60
70229;BME280;57617;51.988;5.854;2022-08-23T09:21:06;101084.25;;;26.82;45.29
70229;BME280;57617;51.988;5.854;2022-08-23T09:23:39;101094.91;;;27.01;43.96
70229;BME280;57617;51.988;5.854;2022-08-23T09:26:17;101092.00;;;27.18;43.67
70229;BME280;57617;51.988;5.854;2022-08-23T09:28:44;101092.00;;;27.30;43.31
70229;BME280;57617;51.988;5.854;2022-08-23T09:31:10;101082.28;;;27.48;42.39
70229;BME280;57617;51.988;5.854;2022-08-23T09:33:38;101083.69;;;27.66;41.53
70229;BME280;57617;51.988;5.854;2022-08-23T09:36:17;101088.38;;;27.86;41.23
70229;BME280;57617;51.988;5.854;2022-08-23T09:38:52;101082.69;;;28.06;40.83
70229;BME280;57617;51.988;5.854;2022-08-23T09:41:23;101075.66;;;28.24;39.21
70229;BME280;57617;51.988;5.854;2022-08-23T09:43:49;101080.88;;;28.38;39.59
70229;BME280;57617;51.988;5.854;2022-08-23T09:46:25;101071.06;;;28.56;38.74
70229;BME280;57617;51.988;5.854;2022-08-23T09:48:50;101079.06;;;28.69;38.48
70229;BME280;57617;51.988;5.854;2022-08-23T09:51:33;101068.38;;;28.87;38.06
70229;BME280;57617;51.988;5.854;2022-08-23T09:56:43;101080.59;;;29.22;37.90
70229;BME280;57617;51.988;5.854;2022-08-23T10:01:56;101077.09;;;29.40;35.51
70229;BME280;57617;51.988;5.854;2022-08-23T10:06:54;101077.13;;;29.56;36.52
70229;BME280;57617;51.988;5.854;2022-08-23T10:09:29;101076.75;;;29.57;35.36
70229;BME280;57617;51.988;5.854;2022-08-23T10:11:56;101069.63;;;29.60;36.35
70229;BME280;57617;51.988;5.854;2022-08-23T10:14:23;101066.81;;;29.75;36.85
70229;BME280;57617;51.988;5.854;2022-08-23T10:17:11;101074.84;;;29.92;36.01
70229;BME280;57617;51.988;5.854;2022-08-23T10:19:57;101066.78;;;29.91;36.25
70229;BME280;57617;51.988;5.854;2022-08-23T10:22:40;101069.69;;;29.94;35.71
70229;BME280;57617;51.988;5.854;2022-08-23T10:31:01;101061.41;;;30.32;34.97
70229;BME280;57617;51.988;5.854;2022-08-23T10:33:48;101056.84;;;30.43;34.57
70229;BME280;57617;51.988;5.854;2022-08-23T10:36:33;101062.94;;;30.49;33.33
70229;BME280;57617;51.988;5.854;2022-08-23T10:39:08;101060.66;;;30.54;34.01
70229;BME280;57617;51.988;5.854;2022-08-23T10:41:51;101061.69;;;30.65;34.62
70229;BME280;57617;51.988;5.854;2022-08-23T10:46:50;101067.41;;;30.69;33.97
70229;BME280;57617;51.988;5.854;2022-08-23T10:49:19;101062.69;;;30.73;33.72
70229;BME280;57617;51.988;5.854;2022-08-23T10:51:47;101063.22;;;30.78;33.51
70229;BME280;57617;51.988;5.854;2022-08-23T10:54:17;101064.19;;;30.86;33.88
70229;BME280;57617;51.988;5.854;2022-08-23T10:56:52;101052.34;;;30.96;33.97
70229;BME280;57617;51.988;5.854;2022-08-23T10:59:21;101055.34;;;31.06;33.25
70229;BME280;57617;51.988;5.854;2022-08-23T11:12:57;101050.25;;;31.12;32.20
70229;BME280;57617;51.988;5.854;2022-08-23T11:18:11;101050.16;;;31.27;31.71
70229;BME280;57617;51.988;5.854;2022-08-23T11:21:10;101056.84;;;31.42;31.09
70229;BME280;57617;51.988;5.854;2022-08-23T11:28:52;101055.56;;;31.62;31.60
70229;BME280;57617;51.988;5.854;2022-08-23T11:31:37;101052.38;;;31.63;31.85
70229;BME280;57617;51.988;5.854;2022-08-23T11:34:09;101049.25;;;31.68;32.05
70229;BME280;57617;51.988;5.854;2022-08-23T11:36:36;101052.03;;;31.65;32.20
70229;BME280;57617;51.988;5.854;2022-08-23T11:39:03;101059.03;;;31.52;32.41
70229;BME280;57617;51.988;5.854;2022-08-23T11:41:30;101057.78;;;31.49;32.25
70229;BME280;57617;51.988;5.854;2022-08-23T11:46:35;101049.94;;;31.62;32.10
70229;BME280;57617;51.988;5.854;2022-08-23T12:00:21;101059.81;;;31.30;32.51
70229;BME280;57617;51.988;5.854;2022-08-23T12:03:03;101062.47;;;31.42;32.98
70229;BME280;57617;51.988;5.854;2022-08-23T12:18:52;101050.09;;;31.91;32.79
70229;BME280;57617;51.988;5.854;2022-08-23T12:21:22;101046.81;;;31.89;32.30
70229;BME280;57617;51.988;5.854;2022-08-23T12:23:51;101059.25;;;31.88;32.36
70229;BME280;57617;51.988;5.854;2022-08-23T12:31:59;101056.59;;;31.73;32.61
70229;BME280;57617;51.988;5.854;2022-08-23T12:34:33;101054.09;;;31.68;32.69
70229;BME280;57617;51.988;5.854;2022-08-23T12:37:17;101060.81;;;31.86;32.59
70229;BME280;57617;51.988;5.854;2022-08-23T12:39:54;101053.00;;;31.98;32.48
70229;BME280;57617;51.988;5.854;2022-08-23T12:42:26;101056.94;;;32.20;32.25
70229;BME280;57617;51.988;5.854;2022-08-23T12:45:06;101060.69;;;32.27;31.39
70229;BME280;57617;51.988;5.854;2022-08-23T12:47:32;101059.25;;;32.14;31.50
70229;BME280;57617;51.988;5.854;2022-08-23T12:50:06;101067.41;;;31.97;31.50
70229;BME280;57617;51.988;5.854;2022-08-23T12:52:34;101072.25;;;31.96;31.44
70229;BME280;57617;51.988;5.854;2022-08-23T12:55:00;101069.72;;;31.88;31.64
70229;BME280;57617;51.988;5.854;2022-08-23T12:57:31;101075.50;;;31.76;31.45
70229;BME280;57617;51.988;5.854;2022-08-23T13:00:22;101074.44;;;31.61;31.77
70229;BME280;57617;51.988;5.854;2022-08-23T13:05:32;101074.31;;;31.32;32.98
70229;BME280;57617;51.988;5.854;2022-08-23T13:08:00;101073.28;;;31.21;32.88
70229;BME280;57617;51.988;5.854;2022-08-23T13:10:28;101070.31;;;31.14;32.85
70229;BME280;57617;51.988;5.854;2022-08-23T13:12:54;101073.00;;;31.07;32.79
70229;BME280;57617;51.988;5.854;2022-08-23T13:15:47;101084.91;;;31.00;33.08
70229;BME280;57617;51.988;5.854;2022-08-23T13:18:39;101081.09;;;30.89;32.95
70229;BME280;57617;51.988;5.854;2022-08-23T13:21:27;101079.75;;;30.83;33.61
70229;BME280;57617;51.988;5.854;2022-08-23T13:23:58;101080.13;;;30.82;33.78
70229;BME280;57617;51.988;5.854;2022-08-23T13:29:19;101074.06;;;30.80;34.00
70229;BME280;57617;51.988;5.854;2022-08-23T13:31:59;101073.56;;;30.93;33.75
70229;BME280;57617;51.988;5.854;2022-08-23T13:34:35;101062.66;;;31.11;32.92
70229;BME280;57617;51.988;5.854;2022-08-23T13:37:17;101059.25;;;31.21;33.13
70229;BME280;57617;51.988;5.854;2022-08-23T13:39:49;101048.75;;;31.37;32.55
70229;BME280;57617;51.988;5.854;2022-08-23T13:42:52;101056.09;;;31.45;32.57
70229;BME280;57617;51.988;5.854;2022-08-23T13:45:31;101052.66;;;31.55;32.37
70229;BME280;57617;51.988;5.854;2022-08-23T13:48:10;101053.41;;;31.74;32.47
70229;BME280;57617;51.988;5.854;2022-08-23T13:50:36;101056.94;;;31.94;32.29
70229;BME280;57617;51.988;5.854;2022-08-23T13:53:05;101052.00;;;32.13;32.08
70229;BME280;57617;51.988;5.854;2022-08-23T13:55:33;101062.31;;;32.28;31.70
70229;BME280;57617;51.988;5.854;2022-08-23T13:58:09;101048.75;;;32.34;31.10
70229;BME280;57617;51.988;5.854;2022-08-23T14:00:35;101053.59;;;32.37;31.28
70229;BME280;57617;51.988;5.854;2022-08-23T14:03:00;101055.19;;;32.38;31.62
70229;BME280;57617;51.988;5.854;2022-08-23T14:05:25;101050.69;;;32.30;31.18
70229;BME280;57617;51.988;5.854;2022-08-23T14:07:51;101052.56;;;32.22;31.76
70229;BME280;57617;51.988;5.854;2022-08-23T14:10:19;101057.50;;;32.29;31.32
70229;BME280;57617;51.988;5.854;2022-08-23T14:12:46;101065.00;;;32.21;31.16
70229;BME280;57617;51.988;5.854;2022-08-23T14:15:13;101072.41;;;32.07;31.83
70229;BME280;57617;51.988;5.854;2022-08-23T14:17:41;101061.47;;;32.02;31.90
70229;BME280;57617;51.988;5.854;2022-08-23T14:20:08;101058.56;;;31.95;31.64
70229;BME280;57617;51.988;5.854;2022-08-23T14:22:35;101055.53;;;31.81;31.76
70229;BME280;57617;51.988;5.854;2022-08-23T14:25:00;101056.59;;;31.73;32.17
70229;BME280;57617;51.988;5.854;2022-08-23T14:27:26;101049.03;;;31.77;32.10
70229;BME280;57617;51.988;5.854;2022-08-23T14:29:51;101049.59;;;31.86;32.44